sensor_id;sensor_type;location;lat;lon;timestamp;P1;durP1;ratioP1;P2;durP2;ratioP2
18780;SDS011;9519;51.890;8.970;2022-11-20T00:03:22;19.27;;;13.77;;
18780;SDS011;9519;51.890;8.970;2022-11-20T00:08:28;18.70;;;13.37;;
18780;SDS011;9519;51.890;8.970;2022-11-20T00:13:30;20.90;;;13.87;;
18780;SDS011;9519;51.890;8.970;2022-11-20T00:18:33;22.37;;;14.93;;
18780;SDS011;9519;51.890;8.970;2022-11-20T00:23:37;18.70;;;14.23;;
18780;SDS011;9519;51.890;8.970;2022-11-20T00:28:40;21.53;;;14.33;;
18780;SDS011;9519;51.890;8.970;2022-11-20T00:33:43;19.03;;;13.47;;
18780;SDS011;9519;51.890;8.970;2022-11-20T00:38:52;20.50;;;13.53;;
18780;SDS011;9519;51.890;8.970;2022-11-20T00:43:55;20.87;;;13.53;;
18780;SDS011;9519;51.890;8.970;2022-11-20T00:48:58;19.40;;;12.27;;
18780;SDS011;9519;51.890;8.970;2022-11-20T00:54:02;16.13;;;12.27;;
18780;SDS011;9519;51.890;8.970;2022-11-20T00:59:06;20.57;;;13.47;;
18780;SDS011;9519;51.890;8.970;2022-11-20T01:04:10;21.40;;;13.93;;
18780;SDS011;9519;51.890;8.970;2022-11-20T01:09:14;19.20;;;13.03;;
18780;SDS011;9519;51.890;8.970;2022-11-20T01:14:16;17.37;;;12.30;;
18780;SDS011;9519;51.890;8.970;2022-11-20T01:19:21;20.03;;;13.27;;
18780;SDS011;9519;51.890;8.970;2022-11-20T01:24:26;20.17;;;13.10;;
18780;SDS011;9519;51.890;8.970;2022-11-20T01:29:28;23.70;;;13.57;;
18780;SDS011;9519;51.890;8.970;2022-11-20T01:34:30;18.93;;;13.10;;
18780;SDS011;9519;51.890;8.970;2022-11-20T01:39:34;17.33;;;11.73;;
18780;SDS011;9519;51.890;8.970;2022-11-20T01:44:50;18.33;;;12.40;;
18780;SDS011;9519;51.890;8.970;2022-11-20T01:49:58;17.33;;;13.43;;
18780;SDS011;9519;51.890;8.970;2022-11-20T01:55:08;19.63;;;13.33;;
18780;SDS011;9519;51.890;8.970;2022-11-20T02:00:16;17.13;;;11.90;;
18780;SDS011;9519;51.890;8.970;2022-11-20T02:05:22;22.10;;;14.77;;
18780;SDS011;9519;51.890;8.970;2022-11-20T02:10:33;20.13;;;13.30;;
18780;SDS011;9519;51.890;8.970;2022-11-20T02:15:35;22.20;;;12.87;;
18780;SDS011;9519;51.890;8.970;2022-11-20T02:20:38;16.77;;;12.83;;
18780;SDS011;9519;51.890;8.970;2022-11-20T02:25:44;20.03;;;13.00;;
18780;SDS011;9519;51.890;8.970;2022-11-20T02:30:48;20.80;;;13.40;;
18780;SDS011;9519;51.890;8.970;2022-11-20T02:35:50;19.53;;;13.63;;
18780;SDS011;9519;51.890;8.970;2022-11-20T02:40:54;16.27;;;11.67;;
18780;SDS011;9519;51.890;8.970;2022-11-20T02:45:56;15.93;;;12.03;;
18780;SDS011;9519;51.890;8.970;2022-11-20T02:50:58;21.30;;;13.13;;
18780;SDS011;9519;51.890;8.970;2022-11-20T02:56:05;19.40;;;13.17;;
18780;SDS011;9519;51.890;8.970;2022-11-20T03:01:08;21.13;;;14.77;;
18780;SDS011;9519;51.890;8.970;2022-11-20T03:06:10;18.93;;;13.90;;
18780;SDS011;9519;51.890;8.970;2022-11-20T03:11:15;20.17;;;14.30;;
18780;SDS011;9519;51.890;8.970;2022-11-20T03:16:18;18.33;;;13.53;;
18780;SDS011;9519;51.890;8.970;2022-11-20T03:21:23;20.47;;;13.50;;
18780;SDS011;9519;51.890;8.970;2022-11-20T03:26:27;20.70;;;14.40;;
18780;SDS011;9519;51.890;8.970;2022-11-20T03:31:30;20.40;;;15.00;;
18780;SDS011;9519;51.890;8.970;2022-11-20T03:36:35;20.57;;;13.57;;
18780;SDS011;9519;51.890;8.970;2022-11-20T03:41:41;22.37;;;14.20;;
18780;SDS011;9519;51.890;8.970;2022-11-20T03:46:43;20.83;;;14.27;;
18780;SDS011;9519;51.890;8.970;2022-11-20T03:51:46;18.37;;;13.67;;
18780;SDS011;9519;51.890;8.970;2022-11-20T03:56:49;19.63;;;13.30;;
18780;SDS011;9519;51.890;8.970;2022-11-20T04:01:51;17.93;;;13.10;;
18780;SDS011;9519;51.890;8.970;2022-11-20T04:06:54;19.37;;;13.73;;
18780;SDS011;9519;51.890;8.970;2022-11-20T04:11:57;19.77;;;13.00;;
18780;SDS011;9519;51.890;8.970;2022-11-20T04:16:59;20.70;;;14.00;;
18780;SDS011;9519;51.890;8.970;2022-11-20T04:22:02;20.40;;;13.67;;
18780;SDS011;9519;51.890;8.970;2022-11-20T04:27:05;20.23;;;13.47;;
18780;SDS011;9519;51.890;8.970;2022-11-20T04:32:07;23.30;;;14.90;;
18780;SDS011;9519;51.890;8.970;2022-11-20T04:37:10;20.87;;;13.87;;
18780;SDS011;9519;51.890;8.970;2022-11-20T04:42:14;19.07;;;14.70;;
18780;SDS011;9519;51.890;8.970;2022-11-20T04:47:31;20.83;;;14.40;;
18780;SDS011;9519;51.890;8.970;2022-11-20T04:52:33;19.13;;;13.13;;
18780;SDS011;9519;51.890;8.970;2022-11-20T04:57:37;22.13;;;14.77;;
18780;SDS011;9519;51.890;8.970;2022-11-20T05:02:39;20.53;;;13.43;;
18780;SDS011;9519;51.890;8.970;2022-11-20T05:07:41;22.33;;;14.80;;
18780;SDS011;9519;51.890;8.970;2022-11-20T05:12:45;24.37;;;15.37;;
18780;SDS011;9519;51.890;8.970;2022-11-20T05:17:47;22.10;;;15.47;;
18780;SDS011;9519;51.890;8.970;2022-11-20T05:22:49;23.37;;;15.67;;
18780;SDS011;9519;51.890;8.970;2022-11-20T05:27:54;22.27;;;14.70;;
18780;SDS011;9519;51.890;8.970;2022-11-20T05:32:58;24.23;;;15.63;;
18780;SDS011;9519;51.890;8.970;2022-11-20T05:38:00;21.60;;;14.90;;
18780;SDS011;9519;51.890;8.970;2022-11-20T05:43:04;23.57;;;15.80;;
18780;SDS011;9519;51.890;8.970;2022-11-20T05:48:06;20.90;;;15.23;;
18780;SDS011;9519;51.890;8.970;2022-11-20T05:53:09;22.10;;;15.13;;
18780;SDS011;9519;51.890;8.970;2022-11-20T05:58:12;21.90;;;15.17;;
18780;SDS011;9519;51.890;8.970;2022-11-20T06:03:14;21.50;;;15.37;;
18780;SDS011;9519;51.890;8.970;2022-11-20T06:08:17;21.83;;;15.17;;
18780;SDS011;9519;51.890;8.970;2022-11-20T06:13:20;23.90;;;14.50;;
18780;SDS011;9519;51.890;8.970;2022-11-20T06:18:25;23.73;;;16.50;;
18780;SDS011;9519;51.890;8.970;2022-11-20T06:23:29;25.00;;;15.97;;
18780;SDS011;9519;51.890;8.970;2022-11-20T06:28:33;24.37;;;17.17;;
18780;SDS011;9519;51.890;8.970;2022-11-20T06:33:36;24.63;;;16.73;;
18780;SDS011;9519;51.890;8.970;2022-11-20T06:38:38;23.80;;;16.20;;
18780;SDS011;9519;51.890;8.970;2022-11-20T06:43:43;26.60;;;18.57;;
18780;SDS011;9519;51.890;8.970;2022-11-20T06:48:45;28.63;;;18.83;;
18780;SDS011;9519;51.890;8.970;2022-11-20T06:53:48;26.73;;;17.07;;
18780;SDS011;9519;51.890;8.970;2022-11-20T06:58:51;24.63;;;16.53;;
18780;SDS011;9519;51.890;8.970;2022-11-20T07:03:54;23.63;;;15.43;;
18780;SDS011;9519;51.890;8.970;2022-11-20T07:08:56;27.77;;;15.43;;
18780;SDS011;9519;51.890;8.970;2022-11-20T07:14:00;19.07;;;13.80;;
18780;SDS011;9519;51.890;8.970;2022-11-20T07:19:02;22.97;;;15.70;;
18780;SDS011;9519;51.890;8.970;2022-11-20T07:24:04;27.13;;;17.13;;
18780;SDS011;9519;51.890;8.970;2022-11-20T07:29:08;27.93;;;17.53;;
18780;SDS011;9519;51.890;8.970;2022-11-20T07:34:10;27.47;;;17.97;;
18780;SDS011;9519;51.890;8.970;2022-11-20T07:39:13;26.60;;;16.93;;
18780;SDS011;9519;51.890;8.970;2022-11-20T07:44:16;30.40;;;18.70;;
18780;SDS011;9519;51.890;8.970;2022-11-20T07:49:18;30.27;;;20.47;;
18780;SDS011;9519;51.890;8.970;2022-11-20T07:54:21;28.73;;;18.77;;
18780;SDS011;9519;51.890;8.970;2022-11-20T07:59:24;27.03;;;18.33;;
18780;SDS011;9519;51.890;8.970;2022-11-20T08:04:26;25.70;;;17.03;;
18780;SDS011;9519;51.890;8.970;2022-11-20T08:09:30;23.83;;;16.03;;
18780;SDS011;9519;51.890;8.970;2022-11-20T08:14:34;26.00;;;18.23;;
18780;SDS011;9519;51.890;8.970;2022-11-20T08:19:36;32.77;;;20.37;;
18780;SDS011;9519;51.890;8.970;2022-11-20T08:24:38;25.87;;;17.20;;
18780;SDS011;9519;51.890;8.970;2022-11-20T08:29:42;30.47;;;20.53;;
18780;SDS011;9519;51.890;8.970;2022-11-20T08:34:44;29.97;;;19.47;;
18780;SDS011;9519;51.890;8.970;2022-11-20T08:39:46;30.37;;;22.07;;
18780;SDS011;9519;51.890;8.970;2022-11-20T08:44:50;28.97;;;20.83;;
18780;SDS011;9519;51.890;8.970;2022-11-20T08:49:52;25.47;;;17.20;;
18780;SDS011;9519;51.890;8.970;2022-11-20T08:54:55;26.33;;;18.03;;
18780;SDS011;9519;51.890;8.970;2022-11-20T08:59:58;24.20;;;16.70;;
18780;SDS011;9519;51.890;8.970;2022-11-20T09:05:01;24.50;;;16.53;;
18780;SDS011;9519;51.890;8.970;2022-11-20T09:10:04;28.50;;;18.23;;
18780;SDS011;9519;51.890;8.970;2022-11-20T09:15:09;24.90;;;17.43;;
18780;SDS011;9519;51.890;8.970;2022-11-20T09:20:13;28.53;;;17.83;;
18780;SDS011;9519;51.890;8.970;2022-11-20T09:25:16;28.03;;;18.80;;
18780;SDS011;9519;51.890;8.970;2022-11-20T09:30:20;26.23;;;17.83;;
18780;SDS011;9519;51.890;8.970;2022-11-20T09:35:22;26.40;;;18.67;;
18780;SDS011;9519;51.890;8.970;2022-11-20T09:40:25;27.53;;;19.17;;
18780;SDS011;9519;51.890;8.970;2022-11-20T09:45:37;28.50;;;20.50;;
18780;SDS011;9519;51.890;8.970;2022-11-20T09:50:52;29.27;;;19.80;;
18780;SDS011;9519;51.890;8.970;2022-11-20T09:56:06;26.50;;;20.43;;
18780;SDS011;9519;51.890;8.970;2022-11-20T10:01:14;25.67;;;17.50;;
18780;SDS011;9519;51.890;8.970;2022-11-20T10:06:21;29.17;;;18.97;;
18780;SDS011;9519;51.890;8.970;2022-11-20T10:11:33;31.27;;;20.70;;
18780;SDS011;9519;51.890;8.970;2022-11-20T10:16:52;25.27;;;18.20;;
18780;SDS011;9519;51.890;8.970;2022-11-20T10:22:07;21.50;;;15.87;;
18780;SDS011;9519;51.890;8.970;2022-11-20T10:27:28;25.47;;;18.03;;
18780;SDS011;9519;51.890;8.970;2022-11-20T10:32:47;22.13;;;14.57;;
18780;SDS011;9519;51.890;8.970;2022-11-20T10:37:56;24.87;;;16.60;;
18780;SDS011;9519;51.890;8.970;2022-11-20T10:43:04;23.63;;;14.63;;
18780;SDS011;9519;51.890;8.970;2022-11-20T10:48:21;31.23;;;19.07;;
18780;SDS011;9519;51.890;8.970;2022-11-20T10:53:31;14.33;;;10.07;;
18780;SDS011;9519;51.890;8.970;2022-11-20T10:59:03;13.80;;;8.80;;
18780;SDS011;9519;51.890;8.970;2022-11-20T11:04:35;14.57;;;8.80;;
18780;SDS011;9519;51.890;8.970;2022-11-20T11:09:46;13.07;;;9.57;;
18780;SDS011;9519;51.890;8.970;2022-11-20T11:14:52;13.50;;;9.83;;
18780;SDS011;9519;51.890;8.970;2022-11-20T11:20:05;11.07;;;7.57;;
18780;SDS011;9519;51.890;8.970;2022-11-20T11:25:21;10.47;;;7.77;;
18780;SDS011;9519;51.890;8.970;2022-11-20T11:30:28;10.63;;;7.13;;
18780;SDS011;9519;51.890;8.970;2022-11-20T11:35:45;14.67;;;8.33;;
18780;SDS011;9519;51.890;8.970;2022-11-20T11:40:52;10.13;;;6.67;;
18780;SDS011;9519;51.890;8.970;2022-11-20T11:45:56;10.93;;;6.40;;
18780;SDS011;9519;51.890;8.970;2022-11-20T11:51:00;10.07;;;6.47;;
18780;SDS011;9519;51.890;8.970;2022-11-20T11:56:02;10.80;;;6.97;;
18780;SDS011;9519;51.890;8.970;2022-11-20T12:01:12;11.17;;;7.33;;
18780;SDS011;9519;51.890;8.970;2022-11-20T12:06:30;13.77;;;8.13;;
18780;SDS011;9519;51.890;8.970;2022-11-20T12:11:38;11.30;;;8.07;;
18780;SDS011;9519;51.890;8.970;2022-11-20T12:16:48;13.10;;;8.93;;
18780;SDS011;9519;51.890;8.970;2022-11-20T12:21:56;14.77;;;10.73;;
18780;SDS011;9519;51.890;8.970;2022-11-20T12:32:50;16.83;;;11.60;;
18780;SDS011;9519;51.890;8.970;2022-11-20T12:38:26;17.83;;;11.43;;
18780;SDS011;9519;51.890;8.970;2022-11-20T12:43:56;18.50;;;11.67;;
18780;SDS011;9519;51.890;8.970;2022-11-20T12:49:37;20.07;;;12.43;;
18780;SDS011;9519;51.890;8.970;2022-11-20T12:55:06;19.13;;;11.03;;
18780;SDS011;9519;51.890;8.970;2022-11-20T13:00:33;16.97;;;11.00;;
18780;SDS011;9519;51.890;8.970;2022-11-20T13:05:38;17.57;;;11.63;;
18780;SDS011;9519;51.890;8.970;2022-11-20T13:10:58;16.97;;;11.60;;
18780;SDS011;9519;51.890;8.970;2022-11-20T13:16:12;17.80;;;11.43;;
18780;SDS011;9519;51.890;8.970;2022-11-20T13:21:22;17.13;;;11.93;;
18780;SDS011;9519;51.890;8.970;2022-11-20T13:26:41;17.77;;;12.00;;
18780;SDS011;9519;51.890;8.970;2022-11-20T13:31:44;18.37;;;12.00;;
18780;SDS011;9519;51.890;8.970;2022-11-20T13:36:48;22.17;;;14.07;;
18780;SDS011;9519;51.890;8.970;2022-11-20T13:41:55;19.30;;;12.30;;
18780;SDS011;9519;51.890;8.970;2022-11-20T13:46:59;18.43;;;12.20;;
18780;SDS011;9519;51.890;8.970;2022-11-20T13:52:04;20.13;;;13.17;;
18780;SDS011;9519;51.890;8.970;2022-11-20T13:57:42;19.97;;;12.70;;
18780;SDS011;9519;51.890;8.970;2022-11-20T14:03:08;20.13;;;13.13;;
18780;SDS011;9519;51.890;8.970;2022-11-20T14:08:24;20.47;;;12.60;;
18780;SDS011;9519;51.890;8.970;2022-11-20T14:13:34;16.60;;;11.57;;
18780;SDS011;9519;51.890;8.970;2022-11-20T14:18:37;18.07;;;12.27;;
18780;SDS011;9519;51.890;8.970;2022-11-20T14:23:39;18.60;;;11.70;;
18780;SDS011;9519;51.890;8.970;2022-11-20T14:28:42;17.43;;;11.27;;
18780;SDS011;9519;51.890;8.970;2022-11-20T14:33:51;17.10;;;11.63;;
18780;SDS011;9519;51.890;8.970;2022-11-20T14:38:55;16.57;;;10.70;;
18780;SDS011;9519;51.890;8.970;2022-11-20T14:43:58;15.57;;;11.17;;
18780;SDS011;9519;51.890;8.970;2022-11-20T14:49:02;18.07;;;11.93;;
18780;SDS011;9519;51.890;8.970;2022-11-20T14:54:08;16.87;;;10.97;;
18780;SDS011;9519;51.890;8.970;2022-11-20T14:59:21;15.13;;;11.07;;
18780;SDS011;9519;51.890;8.970;2022-11-20T15:04:25;17.90;;;12.00;;
18780;SDS011;9519;51.890;8.970;2022-11-20T15:09:27;16.73;;;12.03;;
18780;SDS011;9519;51.890;8.970;2022-11-20T15:14:31;15.20;;;10.73;;
18780;SDS011;9519;51.890;8.970;2022-11-20T15:19:33;18.53;;;11.60;;
18780;SDS011;9519;51.890;8.970;2022-11-20T15:24:36;16.63;;;11.63;;
18780;SDS011;9519;51.890;8.970;2022-11-20T15:29:39;19.10;;;12.43;;
18780;SDS011;9519;51.890;8.970;2022-11-20T15:34:43;18.63;;;12.27;;
18780;SDS011;9519;51.890;8.970;2022-11-20T15:39:45;19.50;;;12.47;;
18780;SDS011;9519;51.890;8.970;2022-11-20T15:44:48;18.10;;;13.23;;
18780;SDS011;9519;51.890;8.970;2022-11-20T15:49:50;19.07;;;12.93;;
18780;SDS011;9519;51.890;8.970;2022-11-20T15:54:52;18.47;;;13.10;;
18780;SDS011;9519;51.890;8.970;2022-11-20T15:59:56;17.43;;;11.67;;
18780;SDS011;9519;51.890;8.970;2022-11-20T16:04:58;20.47;;;15.43;;
18780;SDS011;9519;51.890;8.970;2022-11-20T16:10:00;22.90;;;15.00;;
18780;SDS011;9519;51.890;8.970;2022-11-20T16:15:05;18.13;;;13.17;;
18780;SDS011;9519;51.890;8.970;2022-11-20T16:20:26;20.37;;;13.87;;
18780;SDS011;9519;51.890;8.970;2022-11-20T16:25:29;20.87;;;13.53;;
18780;SDS011;9519;51.890;8.970;2022-11-20T16:30:33;19.27;;;13.50;;
18780;SDS011;9519;51.890;8.970;2022-11-20T16:35:36;21.47;;;14.20;;
18780;SDS011;9519;51.890;8.970;2022-11-20T16:40:38;20.60;;;13.77;;
18780;SDS011;9519;51.890;8.970;2022-11-20T16:45:42;19.37;;;12.53;;
18780;SDS011;9519;51.890;8.970;2022-11-20T16:50:46;18.03;;;12.53;;
18780;SDS011;9519;51.890;8.970;2022-11-20T16:55:50;19.30;;;13.67;;
18780;SDS011;9519;51.890;8.970;2022-11-20T17:00:53;19.57;;;13.33;;
18780;SDS011;9519;51.890;8.970;2022-11-20T17:05:56;22.27;;;14.13;;
18780;SDS011;9519;51.890;8.970;2022-11-20T17:11:03;19.30;;;13.30;;
18780;SDS011;9519;51.890;8.970;2022-11-20T17:16:08;23.47;;;14.80;;
18780;SDS011;9519;51.890;8.970;2022-11-20T17:21:13;22.80;;;14.47;;
18780;SDS011;9519;51.890;8.970;2022-11-20T17:26:15;21.23;;;14.50;;
18780;SDS011;9519;51.890;8.970;2022-11-20T17:31:22;21.43;;;14.30;;
18780;SDS011;9519;51.890;8.970;2022-11-20T17:36:25;20.07;;;13.70;;
18780;SDS011;9519;51.890;8.970;2022-11-20T17:41:28;17.97;;;12.87;;
18780;SDS011;9519;51.890;8.970;2022-11-20T17:46:32;23.07;;;13.60;;
18780;SDS011;9519;51.890;8.970;2022-11-20T17:51:34;20.90;;;15.23;;
18780;SDS011;9519;51.890;8.970;2022-11-20T17:56:36;20.90;;;13.23;;
18780;SDS011;9519;51.890;8.970;2022-11-20T18:02:03;20.03;;;13.00;;
18780;SDS011;9519;51.890;8.970;2022-11-20T18:07:05;19.37;;;13.63;;
18780;SDS011;9519;51.890;8.970;2022-11-20T18:12:07;20.20;;;14.23;;
18780;SDS011;9519;51.890;8.970;2022-11-20T18:17:11;22.80;;;14.53;;
18780;SDS011;9519;51.890;8.970;2022-11-20T18:22:15;23.47;;;16.77;;
18780;SDS011;9519;51.890;8.970;2022-11-20T18:27:19;25.83;;;15.17;;
18780;SDS011;9519;51.890;8.970;2022-11-20T18:32:24;22.87;;;14.73;;
18780;SDS011;9519;51.890;8.970;2022-11-20T18:37:26;24.80;;;15.47;;
18780;SDS011;9519;51.890;8.970;2022-11-20T18:42:28;27.93;;;17.47;;
18780;SDS011;9519;51.890;8.970;2022-11-20T18:47:49;27.27;;;17.10;;
18780;SDS011;9519;51.890;8.970;2022-11-20T18:52:51;27.43;;;17.73;;
18780;SDS011;9519;51.890;8.970;2022-11-20T18:57:53;26.10;;;17.17;;
18780;SDS011;9519;51.890;8.970;2022-11-20T19:02:57;28.53;;;18.50;;
18780;SDS011;9519;51.890;8.970;2022-11-20T19:07:59;28.53;;;18.53;;
18780;SDS011;9519;51.890;8.970;2022-11-20T19:13:01;29.40;;;19.10;;
18780;SDS011;9519;51.890;8.970;2022-11-20T19:18:05;33.27;;;21.33;;
18780;SDS011;9519;51.890;8.970;2022-11-20T19:23:07;31.97;;;20.53;;
18780;SDS011;9519;51.890;8.970;2022-11-20T19:28:09;32.90;;;21.17;;
18780;SDS011;9519;51.890;8.970;2022-11-20T19:33:13;34.17;;;20.40;;
18780;SDS011;9519;51.890;8.970;2022-11-20T19:38:15;29.63;;;19.17;;
18780;SDS011;9519;51.890;8.970;2022-11-20T19:43:17;28.13;;;19.40;;
18780;SDS011;9519;51.890;8.970;2022-11-20T19:48:20;30.33;;;20.53;;
18780;SDS011;9519;51.890;8.970;2022-11-20T19:53:23;32.27;;;21.30;;
18780;SDS011;9519;51.890;8.970;2022-11-20T19:58:26;34.03;;;22.40;;
18780;SDS011;9519;51.890;8.970;2022-11-20T20:03:31;42.87;;;26.30;;
18780;SDS011;9519;51.890;8.970;2022-11-20T20:08:33;42.73;;;25.90;;
18780;SDS011;9519;51.890;8.970;2022-11-20T20:13:35;42.20;;;25.50;;
18780;SDS011;9519;51.890;8.970;2022-11-20T20:18:39;43.40;;;25.83;;
18780;SDS011;9519;51.890;8.970;2022-11-20T20:23:42;44.27;;;26.67;;
18780;SDS011;9519;51.890;8.970;2022-11-20T20:28:45;44.57;;;27.47;;
18780;SDS011;9519;51.890;8.970;2022-11-20T20:33:49;45.00;;;26.07;;
18780;SDS011;9519;51.890;8.970;2022-11-20T20:38:51;40.43;;;24.53;;
18780;SDS011;9519;51.890;8.970;2022-11-20T20:43:54;41.97;;;26.87;;
18780;SDS011;9519;51.890;8.970;2022-11-20T20:49:15;42.60;;;26.13;;
18780;SDS011;9519;51.890;8.970;2022-11-20T20:54:17;45.47;;;26.67;;
18780;SDS011;9519;51.890;8.970;2022-11-20T20:59:19;38.33;;;23.77;;
18780;SDS011;9519;51.890;8.970;2022-11-20T21:04:23;42.57;;;25.60;;
18780;SDS011;9519;51.890;8.970;2022-11-20T21:09:26;36.07;;;22.80;;
18780;SDS011;9519;51.890;8.970;2022-11-20T21:14:28;35.33;;;23.27;;
18780;SDS011;9519;51.890;8.970;2022-11-20T21:19:32;36.73;;;23.43;;
18780;SDS011;9519;51.890;8.970;2022-11-20T21:24:34;31.50;;;20.77;;
18780;SDS011;9519;51.890;8.970;2022-11-20T21:29:36;35.23;;;22.70;;
18780;SDS011;9519;51.890;8.970;2022-11-20T21:34:40;35.93;;;21.73;;
18780;SDS011;9519;51.890;8.970;2022-11-20T21:39:42;32.13;;;20.97;;
18780;SDS011;9519;51.890;8.970;2022-11-20T21:44:50;33.57;;;19.97;;
18780;SDS011;9519;51.890;8.970;2022-11-20T21:49:54;34.40;;;20.73;;
18780;SDS011;9519;51.890;8.970;2022-11-20T21:54:56;30.63;;;19.17;;
18780;SDS011;9519;51.890;8.970;2022-11-20T21:59:58;29.60;;;18.70;;
18780;SDS011;9519;51.890;8.970;2022-11-20T22:05:01;28.73;;;18.53;;
18780;SDS011;9519;51.890;8.970;2022-11-20T22:10:03;29.70;;;18.87;;
18780;SDS011;9519;51.890;8.970;2022-11-20T22:15:07;30.20;;;18.70;;
18780;SDS011;9519;51.890;8.970;2022-11-20T22:20:11;30.13;;;18.40;;
18780;SDS011;9519;51.890;8.970;2022-11-20T22:25:14;28.23;;;17.87;;
18780;SDS011;9519;51.890;8.970;2022-11-20T22:30:16;27.47;;;17.80;;
18780;SDS011;9519;51.890;8.970;2022-11-20T22:35:20;28.53;;;18.60;;
18780;SDS011;9519;51.890;8.970;2022-11-20T22:40:22;28.20;;;17.83;;
18780;SDS011;9519;51.890;8.970;2022-11-20T22:45:24;30.10;;;17.90;;
18780;SDS011;9519;51.890;8.970;2022-11-20T22:50:27;27.73;;;16.90;;
18780;SDS011;9519;51.890;8.970;2022-11-20T22:55:31;27.83;;;17.10;;
18780;SDS011;9519;51.890;8.970;2022-11-20T23:00:33;24.37;;;16.60;;
18780;SDS011;9519;51.890;8.970;2022-11-20T23:05:37;22.63;;;15.63;;
18780;SDS011;9519;51.890;8.970;2022-11-20T23:10:39;21.90;;;13.90;;
18780;SDS011;9519;51.890;8.970;2022-11-20T23:15:41;23.03;;;14.23;;
18780;SDS011;9519;51.890;8.970;2022-11-20T23:20:45;21.70;;;14.03;;
18780;SDS011;9519;51.890;8.970;2022-11-20T23:25:47;20.23;;;13.27;;
18780;SDS011;9519;51.890;8.970;2022-11-20T23:30:49;22.70;;;14.03;;
18780;SDS011;9519;51.890;8.970;2022-11-20T23:35:52;20.77;;;14.20;;
18780;SDS011;9519;51.890;8.970;2022-11-20T23:40:56;21.23;;;13.33;;
18780;SDS011;9519;51.890;8.970;2022-11-20T23:45:59;22.47;;;13.47;;
18780;SDS011;9519;51.890;8.970;2022-11-20T23:51:04;22.43;;;15.57;;
18780;SDS011;9519;51.890;8.970;2022-11-20T23:56:07;20.23;;;13.60;;
